Time;durP1;ratioP1;P1;durP2;ratioP2;P2;SDS_P1;SDS_P2;PMS_P1;PMS_P2;Temp;Humidity;BMP_temperature;BMP_pressure;BME280_temperature;BME280_humidity;BME280_pressure;Samples;Min_cycle;Max_cycle;Signal;HPM_P1;HPM_P2
2021/07/23 00:00:45;;;;;;;12.20;6.75;;;23.70;94.20;;;;;;5020157;28;20491;-85
2021/07/23 00:03:12;;;;;;;8.30;6.88;;;23.70;94.10;;;;;;5009800;28;20056;-85
2021/07/23 00:05:39;;;;;;;10.10;6.97;;;23.70;94.00;;;;;;5020388;28;20045;-85
2021/07/23 00:08:06;;;;;;;10.43;6.78;;;23.60;93.90;;;;;;5032039;28;20037;-85
2021/07/23 00:10:34;;;;;;;7.68;6.10;;;23.60;93.90;;;;;;5012744;28;20064;-85
2021/07/23 00:13:01;;;;;;;10.13;6.88;;;23.60;94.00;;;;;;5032250;28;20044;-84
2021/07/23 00:15:28;;;;;;;9.30;7.25;;;23.60;94.00;;;;;;5014558;28;20395;-85
2021/07/23 00:17:55;;;;;;;10.57;6.80;;;23.60;94.00;;;;;;5012821;28;20619;-85
2021/07/23 00:20:22;;;;;;;9.13;6.63;;;23.60;94.00;;;;;;5010625;28;20116;-85
2021/07/23 00:22:49;;;;;;;9.55;6.60;;;23.50;94.00;;;;;;5020494;28;20056;-84
2021/07/23 00:25:16;;;;;;;8.07;6.60;;;23.50;94.00;;;;;;5020639;28;20095;-85
2021/07/23 00:27:43;;;;;;;9.45;6.55;;;23.50;94.00;;;;;;5015917;28;20041;-84
2021/07/23 00:30:11;;;;;;;9.40;6.53;;;23.50;94.00;;;;;;5031504;28;20080;-84
2021/07/23 00:32:40;;;;;;;7.45;6.43;;;23.40;94.00;;;;;;5016903;28;20041;-85
2021/07/23 00:35:09;;;;;;;10.38;6.40;;;23.40;94.00;;;;;;5012927;28;20041;-85
2021/07/23 00:37:36;;;;;;;9.05;6.35;;;23.30;93.90;;;;;;5015575;28;20438;-85
2021/07/23 00:40:04;;;;;;;10.57;6.18;;;23.30;93.90;;;;;;5015358;28;20060;-85
2021/07/23 00:42:39;;;;;;;7.25;6.47;;;23.30;93.90;;;;;;5013778;28;20064;-85
2021/07/23 00:45:07;;;;;;;10.65;6.53;;;23.30;93.90;;;;;;5033110;28;20057;-84
2021/07/23 00:47:39;;;;;;;9.75;6.13;;;23.20;94.00;;;;;;5012484;28;20037;-85
2021/07/23 00:50:08;;;;;;;9.30;6.80;;;23.20;94.00;;;;;;5009224;28;20053;-84
2021/07/23 00:52:36;;;;;;;10.00;6.75;;;23.20;94.00;;;;;;5033203;28;20056;-85
2021/07/23 00:55:04;;;;;;;8.70;6.15;;;23.20;94.10;;;;;;5032858;28;20050;-85
2021/07/23 00:57:32;;;;;;;7.75;6.20;;;23.20;94.10;;;;;;5013392;28;20264;-85
2021/07/23 01:00:01;;;;;;;7.50;6.50;;;23.20;94.10;;;;;;5034661;28;20053;-84
2021/07/23 01:02:28;;;;;;;8.15;6.22;;;23.20;94.10;;;;;;5010942;28;21065;-85
2021/07/23 01:04:56;;;;;;;8.07;6.45;;;23.20;94.10;;;;;;5028742;28;20045;-84
2021/07/23 01:07:23;;;;;;;7.18;6.25;;;23.20;94.10;;;;;;5020438;28;20529;-84
2021/07/23 01:09:49;;;;;;;8.93;6.28;;;23.20;94.10;;;;;;5032168;28;20049;-84
2021/07/23 01:12:17;;;;;;;7.43;6.25;;;23.20;94.10;;;;;;5010930;28;20087;-85
2021/07/23 01:14:44;;;;;;;7.85;6.95;;;23.20;94.00;;;;;;5007343;28;20098;-84
2021/07/23 01:17:11;;;;;;;7.35;6.50;;;23.20;94.10;;;;;;5010776;28;20056;-84
2021/07/23 01:19:48;;;;;;;10.77;6.72;;;23.20;94.00;;;;;;5021876;28;20112;-85
2021/07/23 01:22:16;;;;;;;8.23;6.72;;;23.10;94.10;;;;;;5013907;28;20099;-85
2021/07/23 01:24:43;;;;;;;;;;;23.10;94.00;;;;;;5030805;28;20041;-85
2021/07/23 01:27:11;;;;;;;10.80;6.32;;;23.10;94.00;;;;;;5013440;28;20003;-85
2021/07/23 01:29:38;;;;;;;7.55;6.50;;;23.10;94.10;;;;;;5031866;28;20056;-84
2021/07/23 01:32:05;;;;;;;10.88;7.22;;;23.00;94.00;;;;;;5013464;28;20045;-85
2021/07/23 01:34:32;;;;;;;10.75;6.53;;;23.00;94.10;;;;;;5014811;28;20041;-84
2021/07/23 01:36:59;;;;;;;12.65;6.70;;;23.00;94.10;;;;;;5001698;28;20041;-85
2021/07/23 01:39:27;;;;;;;7.40;6.30;;;23.00;94.10;;;;;;5013839;28;20049;-84
2021/07/23 01:41:54;;;;;;;11.18;6.47;;;23.00;94.10;;;;;;5032356;28;20053;-85
2021/07/23 01:44:22;;;;;;;8.68;7.38;;;22.90;94.10;;;;;;5013617;28;20046;-84
2021/07/23 01:46:49;;;;;;;7.80;6.90;;;22.90;94.10;;;;;;5023167;28;20399;-85
2021/07/23 01:49:16;;;;;;;7.50;6.72;;;22.90;94.10;;;;;;5014851;28;20387;-85
2021/07/23 01:51:43;;;;;;;8.82;6.70;;;22.90;94.10;;;;;;5014401;28;20045;-85
2021/07/23 01:54:10;;;;;;;7.47;6.70;;;22.90;94.10;;;;;;5013070;28;20365;-84
2021/07/23 01:56:37;;;;;;;7.45;6.43;;;22.90;94.10;;;;;;5015059;28;20041;-85
2021/07/23 01:59:04;;;;;;;7.22;6.47;;;22.90;94.20;;;;;;5016497;28;20053;-84
2021/07/23 02:01:31;;;;;;;8.90;6.72;;;22.90;94.30;;;;;;5012874;28;20049;-84
2021/07/23 02:03:58;;;;;;;8.05;6.70;;;22.90;94.20;;;;;;5004879;28;20050;-85
2021/07/23 02:06:25;;;;;;;7.30;6.60;;;22.90;94.10;;;;;;5028682;28;20045;-85
2021/07/23 02:08:51;;;;;;;9.75;6.70;;;22.80;94.10;;;;;;5036810;28;20046;-85
2021/07/23 02:11:18;;;;;;;10.60;6.93;;;22.80;94.10;;;;;;5010842;28;20058;-85
2021/07/23 02:13:45;;;;;;;7.97;6.65;;;22.80;94.10;;;;;;5020256;28;20053;-84
2021/07/23 02:16:12;;;;;;;7.75;6.97;;;22.80;94.00;;;;;;5038656;28;20390;-84
2021/07/23 02:18:39;;;;;;;9.25;6.60;;;22.80;94.00;;;;;;5030198;28;20042;-85
2021/07/23 02:21:07;;;;;;;7.30;6.43;;;22.80;94.00;;;;;;5025726;28;20048;-85
2021/07/23 02:23:34;;;;;;;8.82;6.82;;;22.80;94.00;;;;;;5017034;28;20472;-85
2021/07/23 02:26:01;;;;;;;7.68;6.85;;;22.80;94.00;;;;;;5028199;28;20045;-85
2021/07/23 02:28:29;;;;;;;7.78;6.65;;;22.80;94.10;;;;;;5006686;28;20069;-85
2021/07/23 02:30:56;;;;;;;10.15;6.38;;;22.80;94.10;;;;;;5031966;28;20045;-85
2021/07/23 02:33:23;;;;;;;8.48;6.90;;;22.80;94.10;;;;;;5015529;28;20037;-85
2021/07/23 02:35:49;;;;;;;7.35;6.55;;;22.80;94.10;;;;;;5011612;28;20104;-84
2021/07/23 02:38:16;;;;;;;7.35;6.65;;;22.80;94.10;;;;;;5028085;28;20387;-85
2021/07/23 02:40:43;;;;;;;9.10;7.03;;;22.80;94.00;;;;;;5008815;28;20061;-85
2021/07/23 02:43:10;;;;;;;10.68;6.93;;;22.80;94.00;;;;;;5011311;28;20034;-85
2021/07/23 02:45:37;;;;;;;7.90;6.72;;;22.70;93.90;;;;;;5029415;28;20048;-85
2021/07/23 02:48:04;;;;;;;7.25;6.55;;;22.70;93.90;;;;;;5009003;28;20049;-85
2021/07/23 02:50:31;;;;;;;8.65;7.07;;;22.70;94.00;;;;;;5009960;28;20053;-85
2021/07/23 02:52:58;;;;;;;8.10;6.65;;;22.70;94.00;;;;;;5020770;28;20483;-84
2021/07/23 02:55:30;;;;;;;11.02;6.60;;;22.70;93.90;;;;;;4999539;28;20041;-85
2021/07/23 02:57:57;;;;;;;8.23;6.90;;;22.70;93.90;;;;;;5027144;28;20058;-85
2021/07/23 03:00:24;;;;;;;8.52;7.22;;;22.70;93.90;;;;;;5021592;28;20045;-85
2021/07/23 03:02:51;;;;;;;13.50;7.47;;;22.70;94.00;;;;;;5011147;28;20056;-84
2021/07/23 03:05:18;;;;;;;8.07;7.18;;;22.60;93.90;;;;;;5037175;28;20087;-84
2021/07/23 03:07:45;;;;;;;11.63;7.18;;;22.60;94.00;;;;;;5011829;28;20054;-84
2021/07/23 03:10:12;;;;;;;10.07;7.55;;;22.60;94.10;;;;;;5029716;28;20499;-84
2021/07/23 03:12:39;;;;;;;10.32;7.47;;;22.60;94.10;;;;;;5010636;28;20057;-85
2021/07/23 03:15:06;;;;;;;12.57;7.18;;;22.60;94.10;;;;;;5011069;28;20050;-85
2021/07/23 03:17:33;;;;;;;10.38;7.32;;;22.60;94.20;;;;;;5012360;28;20051;-84
2021/07/23 03:20:00;;;;;;;11.52;7.93;;;22.50;94.20;;;;;;5008600;28;20046;-85
2021/07/23 03:22:30;;;;;;;8.52;7.53;;;22.60;94.10;;;;;;5008754;28;20140;-85
2021/07/23 03:24:57;;;;;;;9.27;8.00;;;22.50;94.10;;;;;;5025695;28;20057;-85
2021/07/23 03:27:24;;;;;;;7.85;7.05;;;22.50;94.10;;;;;;5011485;28;20132;-85
2021/07/23 03:29:52;;;;;;;8.50;7.30;;;22.50;94.10;;;;;;5028440;28;20095;-85
2021/07/23 03:32:19;;;;;;;8.82;7.32;;;22.50;94.20;;;;;;5008461;28;20034;-85
2021/07/23 03:34:46;;;;;;;10.88;7.97;;;22.50;94.10;;;;;;5012496;28;20052;-85
2021/07/23 03:37:13;;;;;;;11.00;8.65;;;22.50;94.10;;;;;;5023529;28;20049;-84
2021/07/23 03:39:41;;;;;;;8.85;7.85;;;22.50;94.10;;;;;;5026341;28;20076;-85
2021/07/23 03:42:08;;;;;;;8.90;7.40;;;22.50;94.10;;;;;;5030258;28;20669;-85
2021/07/23 03:44:35;;;;;;;11.25;7.38;;;22.50;94.00;;;;;;5022969;28;20497;-85
2021/07/23 03:47:03;;;;;;;8.63;7.63;;;22.50;94.10;;;;;;5032215;28;20346;-84
2021/07/23 03:49:29;;;;;;;10.95;7.80;;;22.40;94.10;;;;;;5027080;28;20467;-85
2021/07/23 03:51:58;;;;;;;9.70;7.25;;;22.40;94.10;;;;;;5007811;28;20410;-84
2021/07/23 03:54:25;;;;;;;10.13;7.65;;;22.40;94.10;;;;;;5024667;28;20106;-85
2021/07/23 03:56:52;;;;;;;8.52;6.80;;;22.40;94.10;;;;;;5010573;28;20045;-84
2021/07/23 03:59:21;;;;;;;9.05;7.30;;;22.30;94.20;;;;;;4958135;28;1172627;-85
2021/07/23 04:01:48;;;;;;;8.63;7.13;;;22.30;94.20;;;;;;5003094;28;20046;-84
2021/07/23 04:04:15;;;;;;;8.43;7.47;;;22.30;94.20;;;;;;5012125;28;20132;-85
2021/07/23 04:06:42;;;;;;;8.43;7.63;;;22.30;94.10;;;;;;5009172;28;20046;-85
2021/07/23 04:09:09;;;;;;;9.23;7.75;;;22.30;94.00;;;;;;5029984;28;20051;-85
2021/07/23 04:11:38;;;;;;;8.40;7.47;;;22.20;94.00;;;;;;5033261;28;20045;-84
2021/07/23 04:14:04;;;;;;;;;;;22.20;94.10;;;;;;5021602;28;20041;-85
2021/07/23 04:16:31;;;;;;;9.05;7.45;;;22.20;94.00;;;;;;5010053;28;19932;-85
2021/07/23 04:18:59;;;;;;;8.65;7.50;;;22.10;94.00;;;;;;5010489;28;21533;-85
2021/07/23 04:21:26;;;;;;;9.50;8.38;;;22.10;93.90;;;;;;5017679;28;20045;-84
2021/07/23 04:23:52;;;;;;;9.15;7.78;;;22.10;94.00;;;;;;5014429;28;20045;-84
2021/07/23 04:26:19;;;;;;;8.60;7.70;;;22.10;94.00;;;;;;5021560;28;20041;-85
2021/07/23 04:28:46;;;;;;;9.27;7.80;;;22.10;94.00;;;;;;5028025;28;20053;-85
2021/07/23 04:31:13;;;;;;;9.85;7.68;;;22.10;93.90;;;;;;5011588;28;20053;-84
2021/07/23 04:33:40;;;;;;;9.88;8.15;;;22.10;93.90;;;;;;5027297;28;20053;-85
2021/07/23 04:36:14;;;;;;;10.38;7.97;;;22.00;94.00;;;;;;5030970;28;20110;-85
2021/07/23 04:38:41;;;;;;;9.82;7.90;;;22.00;94.00;;;;;;5014444;28;20077;-83
2021/07/23 04:41:08;;;;;;;9.07;8.18;;;22.00;94.10;;;;;;5009744;28;20484;-85
2021/07/23 04:43:38;;;;;;;8.48;7.68;;;22.00;94.10;;;;;;5031578;28;20057;-84
2021/07/23 04:46:06;;;;;;;8.70;7.55;;;22.00;94.10;;;;;;5015855;28;20475;-85
2021/07/23 04:48:34;;;;;;;10.10;7.90;;;22.00;94.10;;;;;;5033878;28;20483;-84
2021/07/23 04:51:04;;;;;;;8.73;7.38;;;22.00;94.10;;;;;;5015082;28;20050;-84
2021/07/23 04:53:32;;;;;;;12.65;7.93;;;22.00;94.10;;;;;;5022142;28;20041;-85
2021/07/23 04:56:01;;;;;;;8.25;7.38;;;22.00;94.20;;;;;;5003281;28;20042;-85
2021/07/23 04:58:28;;;;;;;9.35;7.95;;;22.00;94.10;;;;;;5004372;28;20051;-85
2021/07/23 05:00:55;;;;;;;10.20;7.72;;;21.90;94.10;;;;;;5037324;28;20067;-85
2021/07/23 05:03:40;;;;;;;11.07;7.60;;;21.90;94.20;;;;;;5030594;28;20045;-85
2021/07/23 05:06:09;;;;;;;8.93;7.70;;;21.90;94.10;;;;;;5010285;28;20049;-85
2021/07/23 05:08:36;;;;;;;8.77;7.22;;;21.90;94.10;;;;;;5014497;28;20050;-84
2021/07/23 05:11:07;;;;;;;9.40;8.40;;;21.90;94.20;;;;;;5021337;28;20038;-84
2021/07/23 05:13:35;;;;;;;8.57;7.75;;;21.90;94.20;;;;;;5032751;28;20127;-85
2021/07/23 05:16:03;;;;;;;10.17;8.13;;;21.90;94.20;;;;;;5017433;28;20046;-88
2021/07/23 05:18:35;;;;;;;11.85;7.70;;;21.90;94.20;;;;;;5013541;28;20044;-85
2021/07/23 05:21:04;;;;;;;10.13;7.55;;;21.90;94.30;;;;;;5014417;28;20048;-85
2021/07/23 05:23:33;;;;;;;9.57;7.50;;;22.00;94.30;;;;;;5013444;28;20045;-86
2021/07/23 05:26:05;;;;;;;9.00;8.05;;;22.00;94.30;;;;;;5032528;28;20116;-85
2021/07/23 05:28:32;;;;;;;13.43;8.10;;;22.00;94.40;;;;;;5005725;28;20049;-85
2021/07/23 05:31:06;;;;;;;13.57;7.90;;;22.00;94.40;;;;;;5012918;28;20073;-85
2021/07/23 05:33:33;;;;;;;9.45;7.75;;;22.00;94.30;;;;;;5018192;28;20086;-85
2021/07/23 05:36:02;;;;;;;11.10;8.02;;;22.00;94.40;;;;;;5035446;28;20061;-85
2021/07/23 05:38:29;;;;;;;8.23;7.53;;;22.00;94.40;;;;;;5017887;28;20115;-85
2021/07/23 05:40:56;;;;;;;11.65;7.53;;;22.00;94.40;;;;;;5013290;28;20506;-85
2021/07/23 05:43:23;;;;;;;9.80;8.18;;;22.00;94.50;;;;;;5012626;28;20479;-85
2021/07/23 05:45:49;;;;;;;10.15;7.97;;;22.00;94.50;;;;;;5015382;28;20052;-85
2021/07/23 05:48:17;;;;;;;8.70;7.50;;;22.00;94.60;;;;;;5018124;28;20053;-85
2021/07/23 05:50:43;;;;;;;8.52;7.65;;;22.00;94.40;;;;;;5021404;28;20391;-84
2021/07/23 05:53:10;;;;;;;8.73;7.82;;;22.00;94.40;;;;;;5030934;28;20049;-85
2021/07/23 05:55:37;;;;;;;11.18;7.70;;;22.00;94.40;;;;;;5015610;28;20049;-85
2021/07/23 05:58:04;;;;;;;13.23;8.52;;;22.00;94.50;;;;;;5024899;28;20095;-84
2021/07/23 06:00:31;;;;;;;8.45;7.00;;;22.00;94.40;;;;;;5025798;28;20059;-85
2021/07/23 06:03:03;;;;;;;8.63;7.70;;;22.00;94.40;;;;;;5031613;28;20068;-84
2021/07/23 06:05:30;;;;;;;9.90;7.47;;;22.00;94.60;;;;;;5031454;28;20065;-85
2021/07/23 06:07:57;;;;;;;9.50;8.25;;;22.10;94.60;;;;;;5014570;28;20073;-85
2021/07/23 06:10:24;;;;;;;9.10;7.80;;;22.00;94.50;;;;;;5031601;28;20100;-84
2021/07/23 06:12:52;;;;;;;11.70;7.38;;;22.10;94.50;;;;;;5030628;28;20107;-86
2021/07/23 06:15:19;;;;;;;11.88;7.70;;;22.10;94.50;;;;;;5009683;28;20089;-85
2021/07/23 06:17:46;;;;;;;10.05;7.63;;;22.10;94.40;;;;;;5022255;28;20563;-85
2021/07/23 06:20:13;;;;;;;9.35;8.05;;;22.10;94.50;;;;;;5016429;28;20099;-84
2021/07/23 06:22:40;;;;;;;9.00;7.65;;;22.10;94.50;;;;;;5019049;28;20439;-85
2021/07/23 06:25:08;;;;;;;8.50;7.60;;;22.10;94.50;;;;;;5028897;28;20045;-85
2021/07/23 06:27:35;;;;;;;10.20;8.65;;;22.20;94.70;;;;;;5041041;28;20048;-85
2021/07/23 06:30:03;;;;;;;9.57;7.30;;;22.20;94.60;;;;;;5033451;28;20045;-85
2021/07/23 06:32:32;;;;;;;9.18;7.53;;;22.30;94.50;;;;;;5029643;28;20045;-85
2021/07/23 06:34:59;;;;;;;9.02;7.70;;;22.40;94.70;;;;;;5012228;28;20124;-86
2021/07/23 06:37:28;;;;;;;9.18;7.28;;;22.40;94.50;;;;;;5016909;28;20092;-85
2021/07/23 06:39:55;;;;;;;10.38;8.52;;;22.50;94.40;;;;;;5031034;28;20045;-85
2021/07/23 06:42:24;;;;;;;10.80;8.60;;;22.50;94.30;;;;;;5018992;28;20056;-85
2021/07/23 06:44:52;;;;;;;10.55;8.07;;;22.50;94.30;;;;;;5029763;28;20387;-85
2021/07/23 06:47:19;;;;;;;9.13;7.45;;;22.60;94.30;;;;;;5014498;28;20080;-84
2021/07/23 06:49:48;;;;;;;9.85;7.97;;;22.60;94.20;;;;;;5025197;28;20045;-85
2021/07/23 06:52:15;;;;;;;9.13;7.40;;;22.60;94.10;;;;;;5012872;28;20525;-85
2021/07/23 06:54:43;;;;;;;10.50;8.30;;;22.70;94.10;;;;;;5013313;28;20045;-85
2021/07/23 06:57:10;;;;;;;8.98;7.53;;;22.70;94.10;;;;;;5028268;28;20050;-84
2021/07/23 06:59:37;;;;;;;8.82;7.95;;;22.70;94.10;;;;;;5003356;28;20042;-85
2021/07/23 07:02:04;;;;;;;7.95;7.15;;;22.70;94.00;;;;;;5008150;28;20041;-85
2021/07/23 07:04:31;;;;;;;10.18;8.10;;;22.70;94.00;;;;;;4993282;28;20136;-86
2021/07/23 07:06:59;;;;;;;11.23;7.90;;;22.70;93.90;;;;;;4986736;28;20484;-85
2021/07/23 07:09:27;;;;;;;9.00;7.63;;;22.70;93.90;;;;;;4990253;28;20053;-85
2021/07/23 07:12:00;;;;;;;;;;;22.80;94.00;;;;;;4992718;28;20046;-85
2021/07/23 07:14:27;;;;;;;10.10;7.97;;;22.70;94.00;;;;;;4992723;28;19921;-85
2021/07/23 07:16:58;;;;;;;11.73;8.07;;;22.70;94.10;;;;;;5006379;28;20428;-85
2021/07/23 07:19:26;;;;;;;10.95;7.82;;;22.70;94.20;;;;;;4995682;28;20472;-85
2021/07/23 07:21:53;;;;;;;10.43;7.45;;;22.70;94.20;;;;;;4992439;28;20053;-85
2021/07/23 07:24:21;;;;;;;10.25;8.10;;;22.70;94.20;;;;;;5010665;28;20038;-85
2021/07/23 07:26:49;;;;;;;9.40;8.23;;;22.70;94.20;;;;;;5011407;28;20046;-85
2021/07/23 07:29:17;;;;;;;9.25;8.00;;;22.70;94.10;;;;;;4992186;28;20124;-85
2021/07/23 07:31:45;;;;;;;11.68;8.23;;;22.80;94.10;;;;;;4991015;28;20046;-85
2021/07/23 07:34:13;;;;;;;10.10;8.10;;;22.80;94.10;;;;;;4990895;28;20061;-85
2021/07/23 07:36:40;;;;;;;10.00;7.90;;;22.90;94.10;;;;;;4994873;28;20053;-85
2021/07/23 07:39:09;;;;;;;10.70;8.48;;;22.90;94.10;;;;;;4991205;28;20495;-85
2021/07/23 07:41:36;;;;;;;10.55;8.25;;;23.00;94.10;;;;;;4988064;28;20058;-84
2021/07/23 07:44:05;;;;;;;12.35;8.48;;;23.10;94.00;;;;;;5008951;28;20044;-85
2021/07/23 07:46:32;;;;;;;10.07;8.32;;;23.10;94.10;;;;;;5006337;28;20057;-85
2021/07/23 07:48:59;;;;;;;13.43;9.35;;;23.20;94.00;;;;;;5006573;28;20050;-86
2021/07/23 07:51:26;;;;;;;9.70;8.43;;;23.30;94.00;;;;;;5011929;28;20064;-85
2021/07/23 07:53:53;;;;;;;12.00;8.68;;;23.30;94.00;;;;;;4987540;28;20050;-86
2021/07/23 07:56:20;;;;;;;11.68;8.18;;;23.30;93.90;;;;;;4983861;28;20045;-85
2021/07/23 07:58:47;;;;;;;13.02;8.73;;;23.30;93.90;;;;;;4996664;28;20045;-85
2021/07/23 08:01:14;;;;;;;13.13;8.93;;;23.30;93.90;;;;;;5033716;28;20050;-85
2021/07/23 08:03:42;;;;;;;12.27;9.98;;;23.30;93.90;;;;;;5031960;28;20045;-85
2021/07/23 08:06:19;;;;;;;12.75;8.75;;;23.30;93.90;;;;;;5029488;28;20132;-85
2021/07/23 08:08:48;;;;;;;12.23;9.57;;;23.30;93.80;;;;;;5023941;28;20504;-85
2021/07/23 08:11:15;;;;;;;10.48;9.18;;;23.20;93.80;;;;;;5013928;28;20037;-85
2021/07/23 08:13:41;;;;;;;11.43;9.30;;;23.20;93.80;;;;;;5014329;28;20045;-85
2021/07/23 08:16:12;;;;;;;13.45;9.60;;;23.10;93.80;;;;;;5014011;28;20045;-85
2021/07/23 08:18:39;;;;;;;10.20;9.13;;;23.10;93.80;;;;;;5012316;28;20054;-85
2021/07/23 08:21:07;;;;;;;13.32;9.85;;;23.10;93.80;;;;;;5003480;28;20053;-85
2021/07/23 08:23:35;;;;;;;12.32;9.73;;;23.10;93.80;;;;;;5008172;28;20044;-85
2021/07/23 08:26:04;;;;;;;11.10;10.00;;;23.10;93.90;;;;;;5024041;28;20045;-85
2021/07/23 08:28:32;;;;;;;11.05;9.88;;;23.00;93.90;;;;;;5016270;28;20125;-85
2021/07/23 08:30:59;;;;;;;10.75;9.65;;;23.00;93.90;;;;;;5034220;28;20487;-85
2021/07/23 08:33:28;;;;;;;12.20;10.40;;;23.00;93.80;;;;;;5014715;28;20041;-85
2021/07/23 08:35:55;;;;;;;14.07;10.18;;;23.00;93.80;;;;;;5016745;28;20099;-85
2021/07/23 08:38:22;;;;;;;12.20;10.55;;;22.90;93.70;;;;;;5012833;28;20041;-85
2021/07/23 08:40:49;;;;;;;16.45;11.10;;;22.90;93.70;;;;;;5017125;28;20070;-85
2021/07/23 08:43:16;;;;;;;16.27;11.13;;;22.90;93.70;;;;;;5020371;28;20051;-85
2021/07/23 08:45:43;;;;;;;12.75;9.98;;;22.90;93.70;;;;;;5013073;28;20048;-85
2021/07/23 08:48:10;;;;;;;13.25;10.07;;;22.90;93.80;;;;;;5012717;28;20053;-85
2021/07/23 08:50:38;;;;;;;11.90;10.70;;;22.80;93.90;;;;;;5011271;28;20045;-85
2021/07/23 08:53:11;;;;;;;11.67;9.90;;;22.80;93.90;;;;;;5014398;28;20049;-85
2021/07/23 08:55:39;;;;;;;12.18;10.50;;;22.80;94.00;;;;;;5013849;28;20052;-85
2021/07/23 08:58:10;;;;;;;16.20;9.90;;;22.80;94.10;;;;;;4998759;28;20471;-85
2021/07/23 09:00:38;;;;;;;14.30;10.10;;;22.80;94.10;;;;;;4991782;28;20046;-85
2021/07/23 09:03:08;;;;;;;11.10;10.00;;;22.80;94.20;;;;;;4995086;28;20683;-85
2021/07/23 09:05:37;;;;;;;13.68;10.50;;;22.80;94.30;;;;;;4975465;28;20554;-85
2021/07/23 09:08:07;;;;;;;11.82;10.60;;;22.80;94.30;;;;;;4996719;28;20046;-85
2021/07/23 09:10:35;;;;;;;11.98;10.70;;;22.90;94.40;;;;;;4996196;28;20093;-85
2021/07/23 09:13:03;;;;;;;11.73;10.25;;;22.80;94.70;;;;;;4993687;28;20498;-85
2021/07/23 09:15:38;;;;;;;13.85;10.60;;;22.80;94.90;;;;;;4995382;28;20130;-85
2021/07/23 09:18:21;;;;;;;13.25;10.25;;;22.80;95.30;;;;;;4994316;28;20049;-85
2021/07/23 09:21:01;;;;;;;12.77;10.43;;;22.70;95.60;;;;;;5016387;28;20053;-85
2021/07/23 09:23:37;;;;;;;14.10;11.98;;;22.70;96.00;;;;;;4993510;28;20043;-85
2021/07/23 09:26:10;;;;;;;15.60;11.25;;;22.60;96.30;;;;;;4993756;28;20041;-85
2021/07/23 09:28:41;;;;;;;14.40;11.70;;;22.60;96.70;;;;;;4991508;28;20049;-85
2021/07/23 09:31:10;;;;;;;15.57;12.20;;;22.50;97.00;;;;;;4994462;28;20128;-85
2021/07/23 09:33:41;;;;;;;13.82;11.43;;;22.40;97.10;;;;;;5002280;28;20128;-85
2021/07/23 09:36:09;;;;;;;12.65;11.18;;;22.30;97.20;;;;;;4993047;28;20484;-85
2021/07/23 09:38:40;;;;;;;15.02;11.30;;;22.30;97.50;;;;;;4996462;28;20116;-85
2021/07/23 09:41:11;;;;;;;13.07;11.73;;;22.20;97.60;;;;;;4990639;28;20510;-85
2021/07/23 09:43:45;;;;;;;13.63;11.50;;;22.10;98.00;;;;;;4993907;28;20404;-84
2021/07/23 09:46:17;;;;;;;14.55;11.68;;;22.10;98.00;;;;;;4994597;28;20369;-85
2021/07/23 09:48:45;;;;;;;16.27;12.35;;;22.00;98.20;;;;;;5001359;28;20054;-85
2021/07/23 09:51:12;;;;;;;17.23;11.77;;;22.00;98.40;;;;;;4989842;28;20114;-85
2021/07/23 09:53:40;;;;;;;12.75;11.15;;;22.00;98.50;;;;;;5001111;28;20045;-85
2021/07/23 09:56:09;;;;;;;17.20;12.55;;;22.00;98.70;;;;;;4984416;28;20046;-85
2021/07/23 09:58:44;;;;;;;14.88;12.73;;;22.00;98.70;;;;;;4990107;28;20505;-85
2021/07/23 10:01:19;;;;;;;17.20;12.10;;;22.10;99.10;;;;;;5019833;28;20049;-85
2021/07/23 10:03:50;;;;;;;16.55;12.95;;;22.10;99.20;;;;;;5007633;28;20055;-85
2021/07/23 10:06:25;;;;;;;16.88;13.50;;;22.00;99.30;;;;;;5003599;28;20136;-85
2021/07/23 10:09:00;;;;;;;14.88;11.70;;;22.00;99.40;;;;;;5022744;28;20049;-85
2021/07/23 10:11:30;;;;;;;13.43;12.02;;;22.00;99.40;;;;;;5005648;28;20042;-85
2021/07/23 10:14:01;;;;;;;15.45;12.52;;;22.00;99.30;;;;;;5004876;28;20048;-85
2021/07/23 10:16:31;;;;;;;19.00;12.55;;;22.10;99.40;;;;;;5023326;28;20365;-86
2021/07/23 10:19:00;;;;;;;13.07;11.65;;;22.10;99.40;;;;;;5023146;28;20068;-85
2021/07/23 10:21:27;;;;;;;;;;;22.20;99.40;;;;;;5009386;28;20065;-86
2021/07/23 10:23:54;;;;;;;13.50;12.00;;;22.20;99.60;;;;;;5007324;28;19929;-85
2021/07/23 10:26:28;;;;;;;13.02;11.57;;;22.20;99.30;;;;;;5002868;28;20053;-85
2021/07/23 10:28:57;;;;;;;18.00;12.88;;;22.20;99.50;;;;;;5009385;28;20049;-85
2021/07/23 10:31:38;;;;;;;13.82;12.40;;;22.20;99.60;;;;;;5010439;28;20096;-85
2021/07/23 10:34:12;;;;;;;15.85;11.88;;;22.20;99.60;;;;;;5007446;28;22918;-86
2021/07/23 10:36:42;;;;;;;13.23;11.65;;;22.20;99.60;;;;;;5007554;28;20044;-85
2021/07/23 10:39:17;;;;;;;13.55;12.18;;;22.10;99.50;;;;;;5009923;28;20139;-85
2021/07/23 10:41:49;;;;;;;16.30;12.98;;;22.10;99.50;;;;;;5000827;28;20054;-85
2021/07/23 10:44:28;;;;;;;14.45;13.00;;;22.00;99.70;;;;;;5003190;28;20505;-85
2021/07/23 10:46:58;;;;;;;14.18;12.68;;;22.00;99.90;;;;;;5023389;28;20041;-84
2021/07/23 10:49:25;;;;;;;20.67;14.05;;;21.90;99.90;;;;;;5007122;28;20443;-86
2021/07/23 10:51:53;;;;;;;14.57;13.07;;;21.90;99.90;;;;;;5009417;28;20153;-85
2021/07/23 10:54:21;;;;;;;15.60;12.02;;;21.80;99.90;;;;;;5021445;28;20056;-84
2021/07/23 10:57:00;;;;;;;13.75;12.30;;;21.80;99.90;;;;;;5003981;28;20050;-85
2021/07/23 10:59:40;;;;;;;19.65;12.73;;;21.70;99.90;;;;;;5003820;28;20045;-86
2021/07/23 11:02:30;;;;;;;14.32;11.63;;;21.60;99.90;;;;;;5002889;28;20045;-84
2021/07/23 11:05:07;;;;;;;16.92;13.35;;;21.60;99.90;;;;;;5003824;28;20061;-84
2021/07/23 11:07:35;;;;;;;17.92;14.05;;;21.50;99.90;;;;;;5024498;28;20052;-84
2021/07/23 11:10:03;;;;;;;18.67;13.35;;;21.50;99.90;;;;;;5004092;28;20045;-83
2021/07/23 11:12:37;;;;;;;17.05;12.40;;;21.50;99.90;;;;;;5004913;28;20056;-84
2021/07/23 11:15:06;;;;;;;13.88;12.45;;;21.50;99.90;;;;;;5025330;28;20049;-86
2021/07/23 11:17:33;;;;;;;15.05;13.48;;;21.40;99.90;;;;;;5004210;28;20593;-84
2021/07/23 11:20:02;;;;;;;15.00;13.40;;;21.30;99.90;;;;;;5005987;28;20047;-84
2021/07/23 11:22:36;;;;;;;14.38;12.88;;;21.30;99.90;;;;;;5025914;28;20057;-84
2021/07/23 11:25:05;;;;;;;14.10;12.32;;;21.20;99.90;;;;;;5000910;28;20608;-84
2021/07/23 11:27:38;;;;;;;16.67;13.18;;;21.10;99.90;;;;;;5007205;28;20049;-84
2021/07/23 11:30:27;;;;;;;15.07;13.18;;;21.00;99.90;;;;;;5011634;28;20068;-84
2021/07/23 11:32:56;;;;;;;15.70;12.52;;;20.90;99.90;;;;;;5004544;28;20056;-84
2021/07/23 11:35:29;;;;;;;16.45;13.55;;;20.80;99.90;;;;;;5006769;28;20399;-84
2021/07/23 11:37:58;;;;;;;15.00;13.05;;;20.80;99.90;;;;;;5008423;28;20045;-85
2021/07/23 11:40:25;;;;;;;22.45;14.13;;;20.90;99.90;;;;;;5009625;28;20548;-84
2021/07/23 11:42:55;;;;;;;15.95;14.13;;;21.00;99.90;;;;;;5010806;28;20112;-84
2021/07/23 11:45:33;;;;;;;15.20;12.95;;;21.10;99.90;;;;;;5029025;28;20050;-84
2021/07/23 11:48:13;;;;;;;;;;;21.20;99.90;;;;;;5013207;28;20433;-84
2021/07/23 11:50:51;;;;;;;16.02;12.77;;;21.30;99.90;;;;;;5009743;28;19921;-84
2021/07/23 11:53:18;;;;;;;18.05;13.02;;;21.30;99.90;;;;;;5014768;28;20048;-84
2021/07/23 11:55:46;;;;;;;14.40;12.90;;;21.40;99.90;;;;;;5008015;28;20496;-84
2021/07/23 11:58:27;;;;;;;15.77;14.02;;;21.30;99.90;;;;;;5028340;28;20054;-84
2021/07/23 12:00:54;;;;;;;18.98;13.18;;;21.30;99.90;;;;;;5011617;28;20049;-85
2021/07/23 12:03:23;;;;;;;15.03;13.50;;;21.30;99.90;;;;;;5009112;28;20088;-85
2021/07/23 12:05:51;;;;;;;15.68;12.93;;;21.40;99.90;;;;;;5008871;28;20053;-84
2021/07/23 12:08:20;;;;;;;17.85;13.07;;;21.40;99.90;;;;;;5026812;28;20086;-84
2021/07/23 12:10:48;;;;;;;15.00;11.85;;;21.40;99.90;;;;;;5011875;28;20057;-84
2021/07/23 12:13:20;;;;;;;14.85;12.88;;;21.40;99.90;;;;;;5008255;28;20204;-85
2021/07/23 12:15:51;;;;;;;16.27;13.73;;;21.40;99.90;;;;;;5017667;28;20087;-85
2021/07/23 12:18:20;;;;;;;17.30;13.55;;;21.40;99.90;;;;;;5009705;28;20049;-85
2021/07/23 12:20:47;;;;;;;15.13;13.55;;;21.50;99.90;;;;;;5009741;28;20087;-85
2021/07/23 12:23:27;;;;;;;18.00;13.50;;;21.50;99.90;;;;;;5006201;28;20044;-85
2021/07/23 12:25:55;;;;;;;18.38;13.88;;;21.40;99.90;;;;;;5011259;28;20495;-85
2021/07/23 12:28:22;;;;;;;15.27;13.55;;;21.30;99.90;;;;;;5001981;28;20042;-85
2021/07/23 12:30:50;;;;;;;16.75;14.43;;;21.20;99.90;;;;;;5011935;28;20041;-85
2021/07/23 12:33:28;;;;;;;19.07;15.13;;;21.20;99.90;;;;;;4989974;28;20459;-85
2021/07/23 12:35:57;;;;;;;17.13;14.77;;;21.10;99.90;;;;;;5010669;28;20805;-85
2021/07/23 12:38:31;;;;;;;19.20;15.48;;;21.00;99.90;;;;;;5007845;28;20050;-85
2021/07/23 12:40:59;;;;;;;17.20;14.95;;;20.90;99.90;;;;;;5029467;28;20076;-85
2021/07/23 12:43:27;;;;;;;20.08;14.73;;;20.80;99.90;;;;;;5008147;28;20139;-85
2021/07/23 12:45:59;;;;;;;19.03;14.83;;;20.70;99.90;;;;;;5026633;28;20119;-84